Taisei Maru No.37 — JJ3822 — position and weather

sailwx.info

Track history (hours):
 
Tides and Currents Weather Stations Pressure Air Temp Water Temp Dewpoint Dewpoint Depression Visibility Wind Speed Wind Dir Waves Ship Positions

Taisei Maru No.37

Last reported at 2018-May-19 10:34 UTC. Time now 2018-May-22 04:42 UTC.
Position N 34°24' E 134°15'.

Length 73 m; draft 5 m.

Type: Cargo ship. MMSI: 431300239.

Date/timePositionNaut miles runAvg speedWind from/ knotsBaromVisibWave heightAir tempDewpointWater temp
2018-May-19 10:34N 34°24' E 134°15'111.6
2018-May-19 10:29N 34°24' E 134°17'711.3
2018-May-19 09:50N 34°21' E 134°25'411.5
2018-May-19 09:28N 34°20' E 134°29'1110.7
2018-May-19 08:28N 34°13' E 134°40'910.1
2018-May-19 07:36N 34°06' E 134°46'210.9
2018-May-19 07:27N 34°04' E 134°47'1110.7
2018-May-19 06:25N 33°56' E 134°55'610.1
2018-May-19 05:52N 33°52' E 134°59'410.0
2018-May-19 05:30N 33°49' E 135°03'228 8.8
2018-May-18 03:32N 34°60' E 139°25'2 9.6
2018-May-18 03:18N 35°01' E 139°28'3 9.8
2018-May-18 03:00N 35°03' E 139°31'510.1
2018-May-18 02:31N 35°05' E 139°36'511.0
2018-May-18 02:00N 35°08' E 139°42'511.0
2018-May-18 01:30N 35°12' E 139°46'611.6
2018-May-18 01:01N 35°18' E 139°44'611.9
2018-May-18 00:30N 35°24' E 139°42'511.2
2018-May-18 00:01N 35°29' E 139°42'1 2.7
2018-May-17 23:30N 35°30' E 139°43'0 0.0
2018-May-17 23:00N 35°30' E 139°43'0 0.0
2018-May-17 22:30N 35°30' E 139°43'0 0.0
2018-May-17 22:01N 35°30' E 139°43'0 0.0
2018-May-17 21:31N 35°30' E 139°43'0 0.0
2018-May-17 21:01N 35°30' E 139°43'0 0.0
2018-May-17 20:30N 35°30' E 139°43'0 0.0
2018-May-17 20:01N 35°30' E 139°43'0 0.0
2018-May-17 19:31N 35°30' E 139°43'0 0.0
2018-May-17 19:01N 35°30' E 139°43'0 0.0
2018-May-17 18:31N 35°30' E 139°43'0 0.0
2018-May-17 18:01N 35°30' E 139°43'0 0.0
2018-May-17 17:31N 35°30' E 139°43'0 0.0
2018-May-17 17:00N 35°30' E 139°43'0 0.0
2018-May-17 16:30N 35°30' E 139°43'0 0.0
2018-May-17 16:00N 35°30' E 139°43'0 0.0
2018-May-17 15:31N 35°30' E 139°43'0 0.0
2018-May-17 15:00N 35°30' E 139°43'0 0.0
2018-May-17 14:31N 35°30' E 139°43'0 0.0
2018-May-17 14:00N 35°30' E 139°43'0 0.0
2018-May-17 13:30N 35°30' E 139°43'0 0.0
2018-May-17 13:01N 35°30' E 139°43'0 0.0
2018-May-17 12:31N 35°30' E 139°43'0 0.0
2018-May-17 12:00N 35°30' E 139°43'0 0.0
2018-May-17 11:30N 35°30' E 139°43'0 0.0
2018-May-17 11:01N 35°30' E 139°43'0 0.0
2018-May-17 10:30N 35°30' E 139°43'0 0.0
2018-May-17 10:00N 35°30' E 139°43'0 0.0
2018-May-17 09:30N 35°30' E 139°43'0 0.0
2018-May-17 09:01N 35°30' E 139°43'0 0.0
2018-May-17 08:30N 35°30' E 139°43'0 0.0
2018-May-17 08:01N 35°30' E 139°43'0 0.0
2018-May-17 07:30N 35°30' E 139°43'0 0.0
2018-May-17 07:00N 35°30' E 139°43'1 1.9
2018-May-17 06:30N 35°30' E 139°44'4 8.6
2018-May-17 06:00N 35°29' E 139°49'0 0.2
2018-May-17 05:27N 35°29' E 139°49'0 0.0
2018-May-17 04:58N 35°29' E 139°49'0 0.1
2018-May-17 04:29N 35°29' E 139°49'0 0.1
2018-May-17 03:56N 35°29' E 139°49'1 2.2
2018-May-17 03:29N 35°30' E 139°49'5 9.7
2018-May-17 03:00N 35°35' E 139°47'0 0.1
2018-May-16 20:27N 35°35' E 139°47'4 8.7
2018-May-16 20:00N 35°35' E 139°51'0 0.0
2018-May-16 17:21N 35°35' E 139°51'0 0.0
2018-May-16 17:00N 35°35' E 139°51'0 0.0
2018-May-16 16:30N 35°35' E 139°51'0 0.0
2018-May-16 15:59N 35°35' E 139°51'0 0.0
2018-May-16 15:30N 35°35' E 139°51'0 0.0
2018-May-16 15:00N 35°35' E 139°51'0 0.0
2018-May-16 14:30N 35°35' E 139°51'0 0.0
2018-May-16 13:53N 35°35' E 139°51'0 0.2
2018-May-16 13:30N 35°35' E 139°51'510.4
2018-May-16 13:00N 35°29' E 139°52'611.2
2018-May-16 12:30N 35°25' E 139°47'510.9
2018-May-16 12:00N 35°20' E 139°45'5 9.8
2018-May-16 11:31N 35°16' E 139°47'510.9
2018-May-16 11:00N 35°10' E 139°47'611.8
2018-May-16 10:31N 35°05' E 139°44'612.2
2018-May-16 10:00N 35°01' E 139°39'714.2
2018-May-16 09:30N 34°57' E 139°31'22411.2
2018-May-15 13:32N 33°23' E 135°26'2012.0
2018-May-15 11:53N 33°19' E 135°02'512.2
2018-May-15 11:30N 33°19' E 134°57'611.8
2018-May-15 11:00N 33°18' E 134°50'611.8
2018-May-15 10:30N 33°17' E 134°43'611.6
2018-May-15 10:00N 33°16' E 134°36'611.2
2018-May-15 09:30N 33°15' E 134°30'611.3
2018-May-15 09:00N 33°14' E 134°23'611.7
2018-May-15 08:30N 33°13' E 134°16'100 9.9
2018-May-14 22:21N 32°60' E 132°17'22 4.5
2018-May-14 17:22N 33°12' E 131°55'512.4
2018-May-14 16:57N 33°18' E 131°55'613.2
2018-May-14 16:30N 33°23' E 131°52'713.5
2018-May-14 15:57N 33°30' E 131°48'713.9
2018-May-14 15:28N 33°36' E 131°45'613.7
2018-May-14 15:00N 33°41' E 131°40'713.5
2018-May-14 14:30N 33°43' E 131°33'612.9
2018-May-14 14:00N 33°44' E 131°25'612.8
2018-May-14 13:30N 33°46' E 131°17'612.4
2018-May-14 13:00N 33°47' E 131°10'612.2
2018-May-14 12:30N 33°48' E 131°03'3 5.4
2018-May-14 12:00N 33°47' E 131°00'0 0.0
2018-May-14 11:30N 33°47' E 131°00'0 0.0
2018-May-14 10:57N 33°47' E 131°00'0 0.0
2018-May-14 10:30N 33°47' E 131°00'0 0.0
2018-May-14 10:00N 33°47' E 131°00'0 0.0
2018-May-14 09:30N 33°47' E 131°00'0 0.0
2018-May-14 09:00N 33°47' E 131°00'0 0.0
2018-May-14 08:30N 33°47' E 131°00'0 0.0
2018-May-14 08:00N 33°47' E 131°00'0 0.0
2018-May-14 07:30N 33°47' E 131°00'0 0.0
2018-May-14 07:00N 33°47' E 131°00'0 0.0
2018-May-14 06:30N 33°47' E 131°00'0 0.0
2018-May-14 05:58N 33°47' E 131°00'0 0.0
2018-May-14 05:30N 33°47' E 131°00'0 0.0
2018-May-14 05:00N 33°47' E 131°00'0 0.0
2018-May-14 04:30N 33°47' E 131°00'0 0.0
2018-May-14 04:00N 33°47' E 131°00'0 0.0
2018-May-14 03:30N 33°47' E 131°00'0 0.0
2018-May-14 03:00N 33°47' E 131°00'0 0.0
2018-May-14 02:30N 33°47' E 131°00'0 0.0
2018-May-14 02:00N 33°47' E 131°00'0 0.0
2018-May-14 01:30N 33°47' E 131°00'0 0.0
2018-May-14 01:00N 33°47' E 131°00'0 0.0
2018-May-14 00:30N 33°47' E 131°00'0 0.0
2018-May-13 23:59N 33°47' E 131°00'0 0.0
2018-May-13 23:30N 33°47' E 131°00'0 0.1
2018-May-13 23:00N 33°47' E 131°00'0 0.9
2018-May-13 22:30N 33°46' E 130°60'0 0.0
2018-May-13 22:00N 33°46' E 130°60'0 0.0
2018-May-13 21:30N 33°46' E 130°60'0 0.0
2018-May-13 21:00N 33°46' E 130°60'0 0.0
2018-May-13 20:30N 33°46' E 130°60'0 0.0
2018-May-13 19:59N 33°46' E 130°60'0 0.0
2018-May-13 19:30N 33°46' E 130°60'0 0.0
2018-May-13 19:00N 33°46' E 130°60'0 0.0
2018-May-13 18:30N 33°46' E 130°60'0 0.0
2018-May-13 17:59N 33°46' E 130°60'0 0.0
2018-May-13 17:30N 33°46' E 130°60'0 0.0
2018-May-13 17:00N 33°46' E 130°60'0 0.0
2018-May-13 16:30N 33°46' E 130°60'0 0.0
2018-May-13 16:00N 33°46' E 130°60'0 0.0
2018-May-13 15:30N 33°46' E 130°60'0 0.0
2018-May-13 15:00N 33°46' E 130°60'0 0.0
2018-May-13 14:30N 33°46' E 130°60'0 0.0
2018-May-13 14:00N 33°46' E 130°60'0 0.0
2018-May-13 13:30N 33°46' E 130°60'0 0.0
2018-May-13 13:00N 33°46' E 130°60'0 0.0
2018-May-13 12:30N 33°46' E 130°60'0 0.0
2018-May-13 12:00N 33°46' E 130°60'0 0.0
2018-May-13 11:30N 33°46' E 130°60'0 0.0
2018-May-13 10:58N 33°46' E 130°60'0 0.0
2018-May-13 10:30N 33°46' E 130°60'0 0.0
2018-May-13 10:00N 33°46' E 130°60'0 0.0
2018-May-13 09:30N 33°46' E 130°60'0 0.0
2018-May-13 08:58N 33°46' E 130°60'0 0.0
2018-May-13 08:30N 33°46' E 130°60'0 0.0
2018-May-13 08:00N 33°46' E 130°60'0 0.0
2018-May-13 07:28N 33°46' E 130°60'0 0.0
2018-May-13 06:59N 33°46' E 130°60'0 0.0
2018-May-13 06:30N 33°46' E 130°60'0 0.0
2018-May-13 06:00N 33°46' E 130°60'0 0.0
2018-May-13 05:28N 33°46' E 130°60'0 0.0
2018-May-13 05:00N 33°46' E 130°60'0 0.0
2018-May-13 04:30N 33°46' E 130°60'0 0.0
2018-May-13 04:00N 33°46' E 130°60'0 0.0
2018-May-13 03:30N 33°46' E 130°60'0 0.0
2018-May-13 03:00N 33°46' E 130°60'0 0.0
2018-May-13 02:30N 33°46' E 130°60'0 0.0
2018-May-13 02:00N 33°46' E 130°60'0 0.0
2018-May-13 01:30N 33°46' E 130°60'0 0.0
2018-May-13 01:00N 33°46' E 130°60'0 0.0
2018-May-13 00:30N 33°46' E 130°60'0 0.0
2018-May-13 00:00N 33°46' E 130°60'0 0.0
2018-May-12 23:30N 33°46' E 130°60'0 0.0
2018-May-12 23:00N 33°46' E 130°60'0 0.0
2018-May-12 22:30N 33°46' E 130°60'0 0.0
2018-May-12 22:00N 33°46' E 130°60'2 3.9
2018-May-12 21:30N 33°48' E 131°01'611.0
2018-May-12 21:00N 33°48' E 131°08'611.9
2018-May-12 20:30N 33°47' E 131°15'611.9
2018-May-12 20:00N 33°47' E 131°22'612.0
2018-May-12 19:30N 33°47' E 131°29'612.1
2018-May-12 19:00N 33°47' E 131°37'612.2
2018-May-12 18:30N 33°46' E 131°44'4211.3
2018-May-12 14:45N 33°52' E 132°34'512.7
2018-May-12 14:23N 33°55' E 132°38'513.0
2018-May-12 13:59N 33°59' E 132°43'7810.6
2018-May-12 06:37N 34°25' E 134°12'211.8
2018-May-12 06:26N 34°24' E 134°14'511.8
2018-May-12 06:00N 34°22' E 134°20'711.8
2018-May-12 05:25N 34°20' E 134°28'511.7
2018-May-12 05:00N 34°18' E 134°33'611.0
2018-May-12 04:24N 34°14' E 134°39'610.9
2018-May-12 03:51N 34°09' E 134°44'411.2
2018-May-12 03:30N 34°06' E 134°47'711.6
2018-May-12 02:55N 34°01' E 134°52'511.6
2018-May-12 02:28N 33°57' E 134°56'511.6
2018-May-12 02:01N 33°53' E 135°01'171 9.7
2018-May-11 08:15N 34°34' E 138°22'310.9
2018-May-11 08:00N 34°34' E 138°25'510.5
2018-May-11 07:30N 34°34' E 138°32'1910.6
2018-May-11 05:43N 34°35' E 138°55'211.3
2018-May-11 05:30N 34°36' E 138°57'611.5
2018-May-11 05:00N 34°41' E 139°02'1311.0
2018-May-11 03:49N 34°50' E 139°13'1410.8
2018-May-11 02:33N 34°59' E 139°25'110.8
2018-May-11 02:28N 34°60' E 139°26'510.5
2018-May-11 02:00N 35°02' E 139°31'510.7
2018-May-11 01:30N 35°05' E 139°37'612.2
2018-May-11 01:00N 35°08' E 139°43'611.6
2018-May-11 00:30N 35°14' E 139°46'611.3
2018-May-11 00:01N 35°19' E 139°43'510.7
2018-May-10 23:31N 35°24' E 139°43'510.2
2018-May-10 23:00N 35°29' E 139°42'1 2.2
2018-May-10 22:31N 35°30' E 139°43'0 0.0
2018-May-10 22:00N 35°30' E 139°43'0 0.0
2018-May-10 21:30N 35°30' E 139°43'0 0.0
2018-May-10 21:00N 35°30' E 139°43'0 0.0
2018-May-10 20:30N 35°30' E 139°43'0 0.0
2018-May-10 20:00N 35°30' E 139°43'0 0.0
2018-May-10 19:31N 35°30' E 139°43'0 0.0
2018-May-10 19:00N 35°30' E 139°43'0 0.0
2018-May-10 18:30N 35°30' E 139°43'0 0.0
2018-May-10 18:01N 35°30' E 139°43'0 0.0
2018-May-10 17:30N 35°30' E 139°43'0 0.0
2018-May-10 17:00N 35°30' E 139°43'0 0.0
2018-May-10 16:30N 35°30' E 139°43'0 0.0
2018-May-10 16:00N 35°30' E 139°43'0 0.0
2018-May-10 15:31N 35°30' E 139°43'0 0.0
2018-May-10 15:01N 35°30' E 139°43'0 0.0
2018-May-10 14:30N 35°30' E 139°43'0 0.0
2018-May-10 14:00N 35°30' E 139°43'0 0.0
2018-May-10 13:30N 35°30' E 139°43'0 0.0
2018-May-10 13:01N 35°30' E 139°43'0 0.0
2018-May-10 12:30N 35°30' E 139°43'0 0.0
2018-May-10 12:00N 35°30' E 139°43'0 0.0
2018-May-10 11:30N 35°30' E 139°43'0 0.0
2018-May-10 11:00N 35°30' E 139°43'0 0.0
2018-May-10 10:30N 35°30' E 139°43'0 0.0
2018-May-10 10:00N 35°30' E 139°43'0 0.0
2018-May-10 09:30N 35°30' E 139°43'0 0.0
2018-May-10 09:00N 35°30' E 139°43'0 0.0
2018-May-10 08:30N 35°30' E 139°43'0 0.0
2018-May-10 08:01N 35°30' E 139°43'0 0.0
2018-May-10 07:30N 35°30' E 139°43'0 0.0
2018-May-10 07:00N 35°30' E 139°43'0 0.0
2018-May-10 06:30N 35°30' E 139°43'0 0.0
2018-May-10 06:00N 35°30' E 139°43'0 0.0
2018-May-10 05:30N 35°30' E 139°43'0 0.6
2018-May-10 05:01N 35°30' E 139°43'5 9.7
2018-May-10 04:30N 35°31' E 139°49'4 8.3
2018-May-10 04:00N 35°35' E 139°46'0 0.2
2018-May-10 03:27N 35°35' E 139°46'0 0.0
2018-May-10 03:01N 35°35' E 139°46'0 0.0
2018-May-10 02:30N 35°35' E 139°46'0 0.0
2018-May-10 02:00N 35°35' E 139°46'0 0.0
2018-May-10 01:30N 35°35' E 139°46'0 0.0
2018-May-10 01:00N 35°35' E 139°46'0 0.0
2018-May-10 00:30N 35°35' E 139°46'0 0.0
2018-May-10 00:01N 35°35' E 139°46'0 0.0
2018-May-09 23:29N 35°35' E 139°46'0 0.0
2018-May-09 23:00N 35°35' E 139°46'0 0.0
2018-May-09 22:30N 35°35' E 139°46'0 0.0
2018-May-09 22:01N 35°35' E 139°46'0 0.0
2018-May-09 21:30N 35°35' E 139°46'0 0.0
2018-May-09 21:01N 35°35' E 139°46'0 0.0
2018-May-09 20:30N 35°35' E 139°46'3 6.7
2018-May-09 20:00N 35°35' E 139°50'510.7
2018-May-09 19:30N 35°37' E 139°56'4 4.5
2018-May-09 18:31N 35°41' E 139°59'0 0.0
2018-May-09 16:58N 35°41' E 139°59'0 0.0
2018-May-09 16:29N 35°41' E 139°59'0 0.0
2018-May-09 15:55N 35°41' E 139°59'0 0.0
2018-May-09 15:14N 35°41' E 139°59'0 0.0
2018-May-09 14:51N 35°41' E 139°59'0 0.0
2018-May-09 14:09N 35°41' E 139°59'0 0.0
2018-May-09 13:40N 35°41' E 139°59'0 0.0
2018-May-09 13:11N 35°41' E 139°59'0 0.0
2018-May-09 12:59N 35°41' E 139°59'0 0.0
2018-May-09 11:54N 35°41' E 139°59'0 0.0
2018-May-09 11:24N 35°41' E 139°59'0 0.0
2018-May-09 10:56N 35°41' E 139°59'  
Track history (hours):
 
Tides and Currents Weather Stations Pressure Air Temp Water Temp Dewpoint Dewpoint Depression Visibility Wind Speed Wind Dir Waves Ship Positions

Taisei Maru No.37

Last reported at 2018-May-19 10:34 UTC. Time now 2018-May-22 04:42 UTC.
Position N 34°24' E 134°15'.

Length 73 m; draft 5 m.

Type: Cargo ship. MMSI: 431300239.

Date/timePositionNaut miles runAvg speedWind from/ knotsBaromVisibWave heightAir tempDewpointWater temp
2018-May-19 10:34N 34°24' E 134°15'111.6
2018-May-19 10:29N 34°24' E 134°17'711.3
2018-May-19 09:50N 34°21' E 134°25'411.5
2018-May-19 09:28N 34°20' E 134°29'1110.7
2018-May-19 08:28N 34°13' E 134°40'910.1
2018-May-19 07:36N 34°06' E 134°46'210.9
2018-May-19 07:27N 34°04' E 134°47'1110.7
2018-May-19 06:25N 33°56' E 134°55'610.1
2018-May-19 05:52N 33°52' E 134°59'410.0
2018-May-19 05:30N 33°49' E 135°03'228 8.8
2018-May-18 03:32N 34°60' E 139°25'2 9.6
2018-May-18 03:18N 35°01' E 139°28'3 9.8
2018-May-18 03:00N 35°03' E 139°31'510.1
2018-May-18 02:31N 35°05' E 139°36'511.0
2018-May-18 02:00N 35°08' E 139°42'511.0
2018-May-18 01:30N 35°12' E 139°46'611.6
2018-May-18 01:01N 35°18' E 139°44'611.9
2018-May-18 00:30N 35°24' E 139°42'511.2
2018-May-18 00:01N 35°29' E 139°42'1 2.7
2018-May-17 23:30N 35°30' E 139°43'0 0.0
2018-May-17 23:00N 35°30' E 139°43'0 0.0
2018-May-17 22:30N 35°30' E 139°43'0 0.0
2018-May-17 22:01N 35°30' E 139°43'0 0.0
2018-May-17 21:31N 35°30' E 139°43'0 0.0
2018-May-17 21:01N 35°30' E 139°43'0 0.0
2018-May-17 20:30N 35°30' E 139°43'0 0.0
2018-May-17 20:01N 35°30' E 139°43'0 0.0
2018-May-17 19:31N 35°30' E 139°43'0 0.0
2018-May-17 19:01N 35°30' E 139°43'0 0.0
2018-May-17 18:31N 35°30' E 139°43'0 0.0
2018-May-17 18:01N 35°30' E 139°43'0 0.0
2018-May-17 17:31N 35°30' E 139°43'0 0.0
2018-May-17 17:00N 35°30' E 139°43'0 0.0
2018-May-17 16:30N 35°30' E 139°43'0 0.0
2018-May-17 16:00N 35°30' E 139°43'0 0.0
2018-May-17 15:31N 35°30' E 139°43'0 0.0
2018-May-17 15:00N 35°30' E 139°43'0 0.0
2018-May-17 14:31N 35°30' E 139°43'0 0.0
2018-May-17 14:00N 35°30' E 139°43'0 0.0
2018-May-17 13:30N 35°30' E 139°43'0 0.0
2018-May-17 13:01N 35°30' E 139°43'0 0.0
2018-May-17 12:31N 35°30' E 139°43'0 0.0
2018-May-17 12:00N 35°30' E 139°43'0 0.0
2018-May-17 11:30N 35°30' E 139°43'0 0.0
2018-May-17 11:01N 35°30' E 139°43'0 0.0
2018-May-17 10:30N 35°30' E 139°43'0 0.0
2018-May-17 10:00N 35°30' E 139°43'0 0.0
2018-May-17 09:30N 35°30' E 139°43'0 0.0
2018-May-17 09:01N 35°30' E 139°43'0 0.0
2018-May-17 08:30N 35°30' E 139°43'0 0.0
2018-May-17 08:01N 35°30' E 139°43'0 0.0
2018-May-17 07:30N 35°30' E 139°43'0 0.0
2018-May-17 07:00N 35°30' E 139°43'1 1.9
2018-May-17 06:30N 35°30' E 139°44'4 8.6
2018-May-17 06:00N 35°29' E 139°49'0 0.2
2018-May-17 05:27N 35°29' E 139°49'0 0.0
2018-May-17 04:58N 35°29' E 139°49'0 0.1
2018-May-17 04:29N 35°29' E 139°49'0 0.1
2018-May-17 03:56N 35°29' E 139°49'1 2.2
2018-May-17 03:29N 35°30' E 139°49'5 9.7
2018-May-17 03:00N 35°35' E 139°47'0 0.1
2018-May-16 20:27N 35°35' E 139°47'4 8.7
2018-May-16 20:00N 35°35' E 139°51'0 0.0
2018-May-16 17:21N 35°35' E 139°51'0 0.0
2018-May-16 17:00N 35°35' E 139°51'0 0.0
2018-May-16 16:30N 35°35' E 139°51'0 0.0
2018-May-16 15:59N 35°35' E 139°51'0 0.0
2018-May-16 15:30N 35°35' E 139°51'0 0.0
2018-May-16 15:00N 35°35' E 139°51'0 0.0
2018-May-16 14:30N 35°35' E 139°51'0 0.0
2018-May-16 13:53N 35°35' E 139°51'0 0.2
2018-May-16 13:30N 35°35' E 139°51'510.4
2018-May-16 13:00N 35°29' E 139°52'611.2
2018-May-16 12:30N 35°25' E 139°47'510.9
2018-May-16 12:00N 35°20' E 139°45'5 9.8
2018-May-16 11:31N 35°16' E 139°47'510.9
2018-May-16 11:00N 35°10' E 139°47'611.8
2018-May-16 10:31N 35°05' E 139°44'612.2
2018-May-16 10:00N 35°01' E 139°39'714.2
2018-May-16 09:30N 34°57' E 139°31'22411.2
2018-May-15 13:32N 33°23' E 135°26'2012.0
2018-May-15 11:53N 33°19' E 135°02'512.2
2018-May-15 11:30N 33°19' E 134°57'611.8
2018-May-15 11:00N 33°18' E 134°50'611.8
2018-May-15 10:30N 33°17' E 134°43'611.6
2018-May-15 10:00N 33°16' E 134°36'611.2
2018-May-15 09:30N 33°15' E 134°30'611.3
2018-May-15 09:00N 33°14' E 134°23'611.7
2018-May-15 08:30N 33°13' E 134°16'100 9.9
2018-May-14 22:21N 32°60' E 132°17'22 4.5
2018-May-14 17:22N 33°12' E 131°55'512.4
2018-May-14 16:57N 33°18' E 131°55'613.2
2018-May-14 16:30N 33°23' E 131°52'713.5
2018-May-14 15:57N 33°30' E 131°48'713.9
2018-May-14 15:28N 33°36' E 131°45'613.7
2018-May-14 15:00N 33°41' E 131°40'713.5
2018-May-14 14:30N 33°43' E 131°33'612.9
2018-May-14 14:00N 33°44' E 131°25'612.8
2018-May-14 13:30N 33°46' E 131°17'612.4
2018-May-14 13:00N 33°47' E 131°10'612.2
2018-May-14 12:30N 33°48' E 131°03'3 5.4
2018-May-14 12:00N 33°47' E 131°00'0 0.0
2018-May-14 11:30N 33°47' E 131°00'0 0.0
2018-May-14 10:57N 33°47' E 131°00'0 0.0
2018-May-14 10:30N 33°47' E 131°00'0 0.0
2018-May-14 10:00N 33°47' E 131°00'0 0.0
2018-May-14 09:30N 33°47' E 131°00'0 0.0
2018-May-14 09:00N 33°47' E 131°00'0 0.0
2018-May-14 08:30N 33°47' E 131°00'0 0.0
2018-May-14 08:00N 33°47' E 131°00'0 0.0
2018-May-14 07:30N 33°47' E 131°00'0 0.0
2018-May-14 07:00N 33°47' E 131°00'0 0.0
2018-May-14 06:30N 33°47' E 131°00'0 0.0
2018-May-14 05:58N 33°47' E 131°00'0 0.0
2018-May-14 05:30N 33°47' E 131°00'0 0.0
2018-May-14 05:00N 33°47' E 131°00'0 0.0
2018-May-14 04:30N 33°47' E 131°00'0 0.0
2018-May-14 04:00N 33°47' E 131°00'0 0.0
2018-May-14 03:30N 33°47' E 131°00'0 0.0
2018-May-14 03:00N 33°47' E 131°00'0 0.0
2018-May-14 02:30N 33°47' E 131°00'0 0.0
2018-May-14 02:00N 33°47' E 131°00'0 0.0
2018-May-14 01:30N 33°47' E 131°00'0 0.0
2018-May-14 01:00N 33°47' E 131°00'0 0.0
2018-May-14 00:30N 33°47' E 131°00'0 0.0
2018-May-13 23:59N 33°47' E 131°00'0 0.0
2018-May-13 23:30N 33°47' E 131°00'0 0.1
2018-May-13 23:00N 33°47' E 131°00'0 0.9
2018-May-13 22:30N 33°46' E 130°60'0 0.0
2018-May-13 22:00N 33°46' E 130°60'0 0.0
2018-May-13 21:30N 33°46' E 130°60'0 0.0
2018-May-13 21:00N 33°46' E 130°60'0 0.0
2018-May-13 20:30N 33°46' E 130°60'0 0.0
2018-May-13 19:59N 33°46' E 130°60'0 0.0
2018-May-13 19:30N 33°46' E 130°60'0 0.0
2018-May-13 19:00N 33°46' E 130°60'0 0.0
2018-May-13 18:30N 33°46' E 130°60'0 0.0
2018-May-13 17:59N 33°46' E 130°60'0 0.0
2018-May-13 17:30N 33°46' E 130°60'0 0.0
2018-May-13 17:00N 33°46' E 130°60'0 0.0
2018-May-13 16:30N 33°46' E 130°60'0 0.0
2018-May-13 16:00N 33°46' E 130°60'0 0.0
2018-May-13 15:30N 33°46' E 130°60'0 0.0
2018-May-13 15:00N 33°46' E 130°60'0 0.0
2018-May-13 14:30N 33°46' E 130°60'0 0.0
2018-May-13 14:00N 33°46' E 130°60'0 0.0
2018-May-13 13:30N 33°46' E 130°60'0 0.0
2018-May-13 13:00N 33°46' E 130°60'0 0.0
2018-May-13 12:30N 33°46' E 130°60'0 0.0
2018-May-13 12:00N 33°46' E 130°60'0 0.0
2018-May-13 11:30N 33°46' E 130°60'0 0.0
2018-May-13 10:58N 33°46' E 130°60'0 0.0
2018-May-13 10:30N 33°46' E 130°60'0 0.0
2018-May-13 10:00N 33°46' E 130°60'0 0.0
2018-May-13 09:30N 33°46' E 130°60'0 0.0
2018-May-13 08:58N 33°46' E 130°60'0 0.0
2018-May-13 08:30N 33°46' E 130°60'0 0.0
2018-May-13 08:00N 33°46' E 130°60'0 0.0
2018-May-13 07:28N 33°46' E 130°60'0 0.0
2018-May-13 06:59N 33°46' E 130°60'0 0.0
2018-May-13 06:30N 33°46' E 130°60'0 0.0
2018-May-13 06:00N 33°46' E 130°60'0 0.0
2018-May-13 05:28N 33°46' E 130°60'0 0.0
2018-May-13 05:00N 33°46' E 130°60'0 0.0
2018-May-13 04:30N 33°46' E 130°60'0 0.0
2018-May-13 04:00N 33°46' E 130°60'0 0.0
2018-May-13 03:30N 33°46' E 130°60'0 0.0
2018-May-13 03:00N 33°46' E 130°60'0 0.0
2018-May-13 02:30N 33°46' E 130°60'0 0.0
2018-May-13 02:00N 33°46' E 130°60'0 0.0
2018-May-13 01:30N 33°46' E 130°60'0 0.0
2018-May-13 01:00N 33°46' E 130°60'0 0.0
2018-May-13 00:30N 33°46' E 130°60'0 0.0
2018-May-13 00:00N 33°46' E 130°60'0 0.0
2018-May-12 23:30N 33°46' E 130°60'0 0.0
2018-May-12 23:00N 33°46' E 130°60'0 0.0
2018-May-12 22:30N 33°46' E 130°60'0 0.0
2018-May-12 22:00N 33°46' E 130°60'2 3.9
2018-May-12 21:30N 33°48' E 131°01'611.0
2018-May-12 21:00N 33°48' E 131°08'611.9
2018-May-12 20:30N 33°47' E 131°15'611.9
2018-May-12 20:00N 33°47' E 131°22'612.0
2018-May-12 19:30N 33°47' E 131°29'612.1
2018-May-12 19:00N 33°47' E 131°37'612.2
2018-May-12 18:30N 33°46' E 131°44'4211.3
2018-May-12 14:45N 33°52' E 132°34'512.7
2018-May-12 14:23N 33°55' E 132°38'513.0
2018-May-12 13:59N 33°59' E 132°43'7810.6
2018-May-12 06:37N 34°25' E 134°12'211.8
2018-May-12 06:26N 34°24' E 134°14'511.8
2018-May-12 06:00N 34°22' E 134°20'711.8
2018-May-12 05:25N 34°20' E 134°28'511.7
2018-May-12 05:00N 34°18' E 134°33'611.0
2018-May-12 04:24N 34°14' E 134°39'610.9
2018-May-12 03:51N 34°09' E 134°44'411.2
2018-May-12 03:30N 34°06' E 134°47'711.6
2018-May-12 02:55N 34°01' E 134°52'511.6
2018-May-12 02:28N 33°57' E 134°56'511.6
2018-May-12 02:01N 33°53' E 135°01'171 9.7
2018-May-11 08:15N 34°34' E 138°22'310.9
2018-May-11 08:00N 34°34' E 138°25'510.5
2018-May-11 07:30N 34°34' E 138°32'1910.6
2018-May-11 05:43N 34°35' E 138°55'211.3
2018-May-11 05:30N 34°36' E 138°57'611.5
2018-May-11 05:00N 34°41' E 139°02'1311.0
2018-May-11 03:49N 34°50' E 139°13'1410.8
2018-May-11 02:33N 34°59' E 139°25'110.8
2018-May-11 02:28N 34°60' E 139°26'510.5
2018-May-11 02:00N 35°02' E 139°31'510.7
2018-May-11 01:30N 35°05' E 139°37'612.2
2018-May-11 01:00N 35°08' E 139°43'611.6
2018-May-11 00:30N 35°14' E 139°46'611.3
2018-May-11 00:01N 35°19' E 139°43'510.7
2018-May-10 23:31N 35°24' E 139°43'510.2
2018-May-10 23:00N 35°29' E 139°42'1 2.2
2018-May-10 22:31N 35°30' E 139°43'0 0.0
2018-May-10 22:00N 35°30' E 139°43'0 0.0
2018-May-10 21:30N 35°30' E 139°43'0 0.0
2018-May-10 21:00N 35°30' E 139°43'0 0.0
2018-May-10 20:30N 35°30' E 139°43'0 0.0
2018-May-10 20:00N 35°30' E 139°43'0 0.0
2018-May-10 19:31N 35°30' E 139°43'0 0.0
2018-May-10 19:00N 35°30' E 139°43'0 0.0
2018-May-10 18:30N 35°30' E 139°43'0 0.0
2018-May-10 18:01N 35°30' E 139°43'0 0.0
2018-May-10 17:30N 35°30' E 139°43'0 0.0
2018-May-10 17:00N 35°30' E 139°43'0 0.0
2018-May-10 16:30N 35°30' E 139°43'0 0.0
2018-May-10 16:00N 35°30' E 139°43'0 0.0
2018-May-10 15:31N 35°30' E 139°43'0 0.0
2018-May-10 15:01N 35°30' E 139°43'0 0.0
2018-May-10 14:30N 35°30' E 139°43'0 0.0
2018-May-10 14:00N 35°30' E 139°43'0 0.0
2018-May-10 13:30N 35°30' E 139°43'0 0.0
2018-May-10 13:01N 35°30' E 139°43'0 0.0
2018-May-10 12:30N 35°30' E 139°43'0 0.0
2018-May-10 12:00N 35°30' E 139°43'0 0.0
2018-May-10 11:30N 35°30' E 139°43'0 0.0
2018-May-10 11:00N 35°30' E 139°43'0 0.0
2018-May-10 10:30N 35°30' E 139°43'0 0.0
2018-May-10 10:00N 35°30' E 139°43'0 0.0
2018-May-10 09:30N 35°30' E 139°43'0 0.0
2018-May-10 09:00N 35°30' E 139°43'0 0.0
2018-May-10 08:30N 35°30' E 139°43'0 0.0
2018-May-10 08:01N 35°30' E 139°43'0 0.0
2018-May-10 07:30N 35°30' E 139°43'0 0.0
2018-May-10 07:00N 35°30' E 139°43'0 0.0
2018-May-10 06:30N 35°30' E 139°43'0 0.0
2018-May-10 06:00N 35°30' E 139°43'0 0.0
2018-May-10 05:30N 35°30' E 139°43'0 0.6
2018-May-10 05:01N 35°30' E 139°43'5 9.7
2018-May-10 04:30N 35°31' E 139°49'4 8.3
2018-May-10 04:00N 35°35' E 139°46'0 0.2
2018-May-10 03:27N 35°35' E 139°46'0 0.0
2018-May-10 03:01N 35°35' E 139°46'0 0.0
2018-May-10 02:30N 35°35' E 139°46'0 0.0
2018-May-10 02:00N 35°35' E 139°46'0 0.0
2018-May-10 01:30N 35°35' E 139°46'0 0.0
2018-May-10 01:00N 35°35' E 139°46'0 0.0
2018-May-10 00:30N 35°35' E 139°46'0 0.0
2018-May-10 00:01N 35°35' E 139°46'0 0.0
2018-May-09 23:29N 35°35' E 139°46'0 0.0
2018-May-09 23:00N 35°35' E 139°46'0 0.0
2018-May-09 22:30N 35°35' E 139°46'0 0.0
2018-May-09 22:01N 35°35' E 139°46'0 0.0
2018-May-09 21:30N 35°35' E 139°46'0 0.0
2018-May-09 21:01N 35°35' E 139°46'0 0.0
2018-May-09 20:30N 35°35' E 139°46'3 6.7
2018-May-09 20:00N 35°35' E 139°50'510.7
2018-May-09 19:30N 35°37' E 139°56'4 4.5
2018-May-09 18:31N 35°41' E 139°59'0 0.0
2018-May-09 16:58N 35°41' E 139°59'0 0.0
2018-May-09 16:29N 35°41' E 139°59'0 0.0
2018-May-09 15:55N 35°41' E 139°59'0 0.0
2018-May-09 15:14N 35°41' E 139°59'0 0.0
2018-May-09 14:51N 35°41' E 139°59'0 0.0
2018-May-09 14:09N 35°41' E 139°59'0 0.0
2018-May-09 13:40N 35°41' E 139°59'0 0.0
2018-May-09 13:11N 35°41' E 139°59'0 0.0
2018-May-09 12:59N 35°41' E 139°59'0 0.0
2018-May-09 11:54N 35°41' E 139°59'0 0.0
2018-May-09 11:24N 35°41' E 139°59'0 0.0
2018-May-09 10:56N 35°41' E 139°59'  

Dump ship's entire track history